createdAt,value
2017-09-23T00:06:14.066Z,7.10
2017-09-23T00:15:50.451Z,7.10
2017-09-23T00:25:28.083Z,7.10
2017-09-23T00:35:04.329Z,7.10
2017-09-23T00:44:45.474Z,7.01
2017-09-23T00:54:16.549Z,6.91
2017-09-23T01:03:52.702Z,6.91
2017-09-23T01:13:29.669Z,6.61
2017-09-23T01:23:07.017Z,6.52
2017-09-23T01:32:43.879Z,6.42
2017-09-23T01:42:20.233Z,6.32
2017-09-23T01:51:56.876Z,6.32
2017-09-23T02:01:33.145Z,6.22
2017-09-23T02:11:11.067Z,6.32
2017-09-23T02:20:47.225Z,6.22
2017-09-23T02:30:23.934Z,6.22
2017-09-23T02:40:01.565Z,6.13
2017-09-23T02:49:37.912Z,6.12
2017-09-23T02:59:14.482Z,6.03
2017-09-23T03:08:50.840Z,5.93
2017-09-23T03:18:27.127Z,6.13
2017-09-23T03:28:03.971Z,6.03
2017-09-23T03:37:40.039Z,5.83
2017-09-23T03:47:16.773Z,5.83
2017-09-23T03:56:57.619Z,5.73
2017-09-23T04:06:28.469Z,5.83
2017-09-23T04:16:05.026Z,5.73
2017-09-23T04:25:41.711Z,5.54
2017-09-23T04:35:17.865Z,5.54
2017-09-23T04:44:54.918Z,5.73
2017-09-23T04:54:32.356Z,5.54
2017-09-23T05:04:13.181Z,5.73
2017-09-23T05:13:44.254Z,5.64
2017-09-23T05:23:20.384Z,5.73
2017-09-23T05:32:57.874Z,5.93
2017-09-23T05:42:35.579Z,6.03
2017-09-23T05:52:12.860Z,6.42
2017-09-23T06:01:50.792Z,6.81
2017-09-23T06:11:28.241Z,7.20
2017-09-23T06:21:05.728Z,7.79
2017-09-23T06:30:43.353Z,8.18
2017-09-23T06:40:20.227Z,8.37
2017-09-23T06:49:58.548Z,8.86
2017-09-23T06:59:35.486Z,9.35
2017-09-23T07:09:13.267Z,10.04
2017-09-23T07:18:51.240Z,10.43
2017-09-23T07:28:32.686Z,10.82
2017-09-23T07:38:03.568Z,11.31
2017-09-23T07:47:42.460Z,11.70
2017-09-23T07:57:19.995Z,12.29
2017-09-23T08:06:57.703Z,12.68
2017-09-23T08:16:35.342Z,13.07
2017-09-23T08:26:13.301Z,13.46
2017-09-23T08:35:50.953Z,13.95
2017-09-23T08:45:28.347Z,14.24
2017-09-23T08:55:05.737Z,14.63
2017-09-23T09:04:44.771Z,14.83
2017-09-23T09:14:22.387Z,15.02
2017-09-23T09:23:59.907Z,15.42
2017-09-23T09:33:37.752Z,16.10
2017-09-23T09:43:15.877Z,16.40
2017-09-23T09:52:53.901Z,16.98
2017-09-23T10:02:32.324Z,17.18
2017-09-23T10:12:09.725Z,17.57
2017-09-23T10:21:48.825Z,17.86
2017-09-23T10:31:26.812Z,18.06
2017-09-23T10:41:04.561Z,18.45
2017-09-23T10:50:42.766Z,18.84
2017-09-23T11:00:20.266Z,21.97
2017-09-23T11:09:59.478Z,21.87
2017-09-23T11:19:36.876Z,20.31
2017-09-23T11:29:14.453Z,20.50
2017-09-23T11:38:52.219Z,21.48
2017-09-23T11:48:30.234Z,21.19
2017-09-23T11:58:08.137Z,21.48
2017-09-23T12:07:45.775Z,21.67
2017-09-23T12:17:25.231Z,22.36
2017-09-23T12:27:03.087Z,22.07
2017-09-23T12:36:41.440Z,22.85
2017-09-23T12:46:19.817Z,22.85
2017-09-23T12:55:57.578Z,22.56
2017-09-23T13:05:38.490Z,23.04
2017-09-23T13:15:19.343Z,25.10
2017-09-23T13:25:00.520Z,26.17
2017-09-23T13:34:37.864Z,26.86
2017-09-23T13:44:13.624Z,25.68
2017-09-23T13:53:51.767Z,26.76
2017-09-23T14:03:34.395Z,25.59
2017-09-23T14:12:57.741Z,22.26
2017-09-23T14:22:29.473Z,21.48
2017-09-23T14:32:04.150Z,20.70
2017-09-23T14:41:40.231Z,20.50
2017-09-23T14:51:17.293Z,20.50
2017-09-23T15:00:54.282Z,20.31
2017-09-23T15:10:30.729Z,19.91
2017-09-23T15:20:08.396Z,20.41
2017-09-23T15:29:44.906Z,19.33
2017-09-23T15:39:22.290Z,19.52
2017-09-23T15:49:01.172Z,19.62
2017-09-23T15:58:36.079Z,18.94
2017-09-23T16:08:12.051Z,17.57
2017-09-23T16:17:48.372Z,17.37
2017-09-23T16:27:24.545Z,16.88
2017-09-23T16:37:00.921Z,16.49
2017-09-23T16:46:37.891Z,16.20
2017-09-23T16:56:14.649Z,15.91
2017-09-23T17:05:51.430Z,15.71
2017-09-23T17:15:28.218Z,15.51
2017-09-23T17:25:05.163Z,15.42
2017-09-23T17:34:42.439Z,15.32
2017-09-23T17:44:23.317Z,15.22
2017-09-23T17:53:54.508Z,15.03
2017-09-23T18:03:31.122Z,15.03
2017-09-23T18:13:11.868Z,14.93
2017-09-23T18:22:43.252Z,14.73
2017-09-23T18:32:20.092Z,14.54
2017-09-23T18:41:57.001Z,14.34
2017-09-23T18:51:33.253Z,14.15
2017-09-23T19:01:11.331Z,14.15
2017-09-23T19:10:48.383Z,13.95
2017-09-23T19:20:24.557Z,13.56
2017-09-23T19:30:02.441Z,13.36
2017-09-23T19:39:38.949Z,13.36
2017-09-23T19:49:17.180Z,13.17
2017-09-23T19:58:53.907Z,13.26
2017-09-23T20:08:30.948Z,13.17
2017-09-23T20:18:08.344Z,13.17
2017-09-23T20:27:45.249Z,12.97
2017-09-23T20:37:21.927Z,12.87
2017-09-23T20:46:58.882Z,12.68
2017-09-23T20:56:36.805Z,12.58
2017-09-23T21:06:14.208Z,12.68
2017-09-23T21:15:51.098Z,12.58
2017-09-23T21:25:28.403Z,12.68
2017-09-23T21:35:05.747Z,12.58
2017-09-23T21:44:43.008Z,12.58
2017-09-23T21:54:20.099Z,12.87
2017-09-23T22:03:58.295Z,12.78
2017-09-23T22:13:35.663Z,12.87
2017-09-23T22:23:12.607Z,12.77
2017-09-23T22:32:49.668Z,12.87
2017-09-23T22:42:27.014Z,12.78
2017-09-23T22:52:04.117Z,12.78
2017-09-23T23:01:41.062Z,12.78
2017-09-23T23:11:18.170Z,12.68
2017-09-23T23:20:55.618Z,12.68
2017-09-23T23:30:32.527Z,12.68
2017-09-23T23:40:09.773Z,12.77
2017-09-23T23:49:46.841Z,12.78
2017-09-23T23:59:24.903Z,12.68
